createdAt,value
2016-09-15T00:00:12.762Z,-90
2016-09-15T00:01:12.750Z,-91
2016-09-15T00:02:12.843Z,-90
2016-09-15T00:03:12.677Z,-91
2016-09-15T00:04:12.893Z,-90
2016-09-15T00:05:12.813Z,-91
2016-09-15T00:06:12.741Z,-91
2016-09-15T00:07:12.872Z,-91
2016-09-15T00:08:12.818Z,-91
2016-09-15T00:09:12.789Z,-91
2016-09-15T00:10:12.762Z,-90
2016-09-15T00:11:12.815Z,-91
2016-09-15T00:12:12.920Z,-91
2016-09-15T00:13:12.867Z,-90
2016-09-15T00:14:12.848Z,-91
2016-09-15T00:15:12.728Z,-91
2016-09-15T00:16:12.880Z,-90
2016-09-15T00:17:12.848Z,-91
2016-09-15T00:18:12.855Z,-92
2016-09-15T00:19:12.729Z,-91
2016-09-15T00:20:12.862Z,-90
2016-09-15T00:21:12.848Z,-91
2016-09-15T00:22:12.872Z,-90
2016-09-15T00:23:12.834Z,-91
2016-09-15T00:24:12.946Z,-90
2016-09-15T00:25:12.886Z,-91
2016-09-15T00:26:12.940Z,-91
2016-09-15T00:27:12.954Z,-91
2016-09-15T00:28:12.962Z,-90
2016-09-15T00:29:12.884Z,-90
2016-09-15T00:30:12.926Z,-91
2016-09-15T00:31:12.872Z,-92
2016-09-15T00:32:12.841Z,-91
2016-09-15T00:33:12.922Z,-91
2016-09-15T00:34:12.748Z,-91
2016-09-15T00:35:12.775Z,-91
2016-09-15T00:36:12.781Z,-91
2016-09-15T00:37:12.947Z,-91
2016-09-15T00:38:12.904Z,-91
2016-09-15T00:39:13.070Z,-90
2016-09-15T00:40:12.973Z,-90
2016-09-15T00:41:12.878Z,-91
2016-09-15T00:42:12.982Z,-91
2016-09-15T00:43:12.849Z,-90
2016-09-15T00:44:12.951Z,-90
2016-09-15T00:45:12.955Z,-91
2016-09-15T00:46:12.921Z,-90
2016-09-15T00:47:12.992Z,-91
2016-09-15T00:48:12.868Z,-90
2016-09-15T00:49:12.840Z,-92
2016-09-15T00:50:13.005Z,-90
2016-09-15T00:51:12.986Z,-90
2016-09-15T00:52:12.954Z,-91
2016-09-15T00:53:12.919Z,-91
2016-09-15T00:54:12.965Z,-91
2016-09-15T00:55:13.013Z,-90
2016-09-15T00:56:12.923Z,-90
2016-09-15T00:57:12.919Z,-91
2016-09-15T00:58:12.967Z,-91
2016-09-15T00:59:13.028Z,-91
2016-09-15T01:00:12.926Z,-91
2016-09-15T01:01:13.007Z,-90
2016-09-15T01:02:12.887Z,-91
2016-09-15T01:03:13.007Z,-91
2016-09-15T01:04:12.874Z,-90
2016-09-15T01:05:12.961Z,-91
2016-09-15T01:06:12.911Z,-92
2016-09-15T01:07:13.010Z,-91
2016-09-15T01:08:13.040Z,-91
2016-09-15T01:09:12.915Z,-91
2016-09-15T01:10:13.018Z,-91
2016-09-15T01:11:12.981Z,-91
2016-09-15T01:12:13.094Z,-91
2016-09-15T01:13:13.005Z,-91
2016-09-15T01:14:13.035Z,-90
2016-09-15T01:15:12.929Z,-91
2016-09-15T01:16:12.948Z,-91
2016-09-15T01:17:13.062Z,-91
2016-09-15T01:18:13.100Z,-91
2016-09-15T01:19:13.083Z,-91
2016-09-15T01:20:13.037Z,-91
2016-09-15T01:21:12.936Z,-90
2016-09-15T01:22:13.061Z,-91
2016-09-15T01:23:13.038Z,-90
2016-09-15T01:24:13.019Z,-91
2016-09-15T01:25:13.101Z,-91
2016-09-15T01:26:13.052Z,-91
2016-09-15T01:27:12.943Z,-91
2016-09-15T01:28:12.958Z,-90
2016-09-15T01:29:13.098Z,-91
2016-09-15T01:30:13.102Z,-91
2016-09-15T01:31:13.089Z,-91
2016-09-15T01:32:12.951Z,-91
2016-09-15T01:33:13.032Z,-90
2016-09-15T01:34:13.037Z,-90
2016-09-15T01:35:13.000Z,-91
2016-09-15T01:36:13.094Z,-91
2016-09-15T01:37:13.089Z,-91
2016-09-15T01:38:13.068Z,-91
2016-09-15T01:39:13.256Z,-91
2016-09-15T01:40:13.012Z,-91
2016-09-15T01:41:13.084Z,-91
2016-09-15T01:42:13.111Z,-91
2016-09-15T01:43:13.180Z,-92
2016-09-15T01:44:13.055Z,-91
2016-09-15T01:45:13.112Z,-91
2016-09-15T01:46:13.195Z,-91
2016-09-15T01:47:13.192Z,-90
2016-09-15T01:48:13.109Z,-91
2016-09-15T01:49:13.119Z,-91
2016-09-15T01:50:13.182Z,-91
2016-09-15T01:51:13.080Z,-91
2016-09-15T01:52:13.107Z,-91
2016-09-15T01:53:13.120Z,-91
2016-09-15T01:54:13.041Z,-92
2016-09-15T01:55:13.020Z,-90
2016-09-15T01:56:13.071Z,-90
2016-09-15T01:57:13.212Z,-91
2016-09-15T01:58:13.165Z,-91
2016-09-15T01:59:13.149Z,-91
2016-09-15T02:00:13.098Z,-90
2016-09-15T02:01:13.072Z,-91
2016-09-15T02:02:13.250Z,-92
2016-09-15T02:03:13.079Z,-91
2016-09-15T02:04:13.224Z,-91
2016-09-15T02:05:13.137Z,-90
2016-09-15T02:06:13.088Z,-89
2016-09-15T02:07:13.123Z,-90
2016-09-15T02:08:13.206Z,-91
2016-09-15T02:09:13.152Z,-91
2016-09-15T02:10:13.204Z,-91
2016-09-15T02:11:13.186Z,-91
2016-09-15T02:12:13.190Z,-91
2016-09-15T02:13:13.192Z,-91
2016-09-15T02:14:13.218Z,-91
2016-09-15T02:15:13.236Z,-91
2016-09-15T02:16:13.206Z,-91
2016-09-15T02:17:13.195Z,-90
2016-09-15T02:18:13.223Z,-91
2016-09-15T02:19:13.112Z,-91
2016-09-15T02:20:13.279Z,-92
2016-09-15T02:21:13.189Z,-91
2016-09-15T02:22:13.094Z,-91
2016-09-15T02:23:13.236Z,-91
2016-09-15T02:24:13.210Z,-91
2016-09-15T02:25:13.252Z,-91
2016-09-15T02:26:13.284Z,-91
2016-09-15T02:27:13.173Z,-91
2016-09-15T02:28:13.303Z,-92
2016-09-15T02:29:13.165Z,-91
2016-09-15T02:30:13.201Z,-91
2016-09-15T02:31:13.196Z,-92
2016-09-15T02:32:13.318Z,-91
2016-09-15T02:33:13.226Z,-92
2016-09-15T02:34:13.325Z,-91
2016-09-15T02:35:13.163Z,-91
2016-09-15T02:36:13.327Z,-90
2016-09-15T02:37:13.240Z,-91
2016-09-15T02:38:13.352Z,-91
2016-09-15T02:39:13.322Z,-91
2016-09-15T02:40:13.189Z,-90
2016-09-15T02:41:13.210Z,-89
2016-09-15T02:42:13.223Z,-91
2016-09-15T02:43:13.305Z,-92
2016-09-15T02:44:13.318Z,-91
2016-09-15T02:45:13.276Z,-91
2016-09-15T02:46:13.210Z,-91
2016-09-15T02:47:13.331Z,-91
2016-09-15T02:48:13.211Z,-91
2016-09-15T02:49:13.215Z,-91
2016-09-15T02:50:13.209Z,-91
2016-09-15T02:51:13.310Z,-91
2016-09-15T02:52:13.426Z,-91
2016-09-15T02:53:13.205Z,-92
2016-09-15T02:54:13.265Z,-91
2016-09-15T02:55:13.294Z,-91
2016-09-15T02:56:13.377Z,-91
2016-09-15T02:57:13.367Z,-91
2016-09-15T02:58:13.413Z,-92
2016-09-15T02:59:13.281Z,-91
2016-09-15T03:00:13.267Z,-91
2016-09-15T03:01:13.303Z,-91
2016-09-15T03:02:13.208Z,-91
2016-09-15T03:03:13.278Z,-91
2016-09-15T03:04:13.331Z,-91
2016-09-15T03:05:13.347Z,-91
2016-09-15T03:06:13.416Z,-91
2016-09-15T03:07:13.298Z,-91
2016-09-15T03:08:13.325Z,-91
2016-09-15T03:09:13.324Z,-91
2016-09-15T03:10:13.389Z,-92
2016-09-15T03:11:13.339Z,-91
2016-09-15T03:12:13.313Z,-92
2016-09-15T03:13:13.326Z,-92
2016-09-15T03:14:13.248Z,-91
2016-09-15T03:15:13.334Z,-92
2016-09-15T03:16:13.406Z,-92
2016-09-15T03:17:13.317Z,-91
2016-09-15T03:18:13.392Z,-91
2016-09-15T03:19:13.382Z,-91
2016-09-15T03:20:13.408Z,-91
2016-09-15T03:21:13.364Z,-91
2016-09-15T03:22:13.314Z,-91
2016-09-15T03:23:13.298Z,-91
2016-09-15T03:24:13.340Z,-91
2016-09-15T03:25:13.429Z,-91
2016-09-15T03:26:13.491Z,-91
2016-09-15T03:27:13.329Z,-91
2016-09-15T03:28:13.321Z,-91
2016-09-15T03:29:13.406Z,-91
2016-09-15T03:30:13.487Z,-92
2016-09-15T03:31:13.498Z,-91
2016-09-15T03:32:13.320Z,-91
2016-09-15T03:33:13.372Z,-91
2016-09-15T03:34:13.492Z,-91
2016-09-15T03:35:13.373Z,-91
2016-09-15T03:36:13.350Z,-91
2016-09-15T03:37:13.430Z,-91
2016-09-15T03:38:13.382Z,-91
2016-09-15T03:39:13.506Z,-91
2016-09-15T03:40:13.580Z,-90
2016-09-15T03:41:13.400Z,-91
2016-09-15T03:42:13.499Z,-91
2016-09-15T03:43:13.364Z,-91
2016-09-15T03:44:13.447Z,-91
2016-09-15T03:45:13.543Z,-91
2016-09-15T03:46:13.391Z,-91
2016-09-15T03:47:13.504Z,-91
2016-09-15T03:48:13.441Z,-91
2016-09-15T03:49:13.470Z,-91
2016-09-15T03:50:13.386Z,-90
2016-09-15T03:51:13.519Z,-91
2016-09-15T03:52:13.439Z,-91
2016-09-15T03:53:13.476Z,-91
2016-09-15T03:54:13.485Z,-92
2016-09-15T03:55:13.353Z,-91
2016-09-15T03:56:13.535Z,-91
2016-09-15T03:57:13.509Z,-91
2016-09-15T03:58:13.579Z,-91
2016-09-15T03:59:13.449Z,-91
2016-09-15T04:00:13.464Z,-91
2016-09-15T04:01:13.396Z,-91
2016-09-15T04:02:13.502Z,-91
2016-09-15T04:03:13.556Z,-91
2016-09-15T04:04:13.404Z,-91
2016-09-15T04:05:13.596Z,-91
2016-09-15T04:06:13.580Z,-91
2016-09-15T04:07:13.492Z,-91
2016-09-15T04:08:13.513Z,-91
2016-09-15T04:09:13.512Z,-90
2016-09-15T04:10:13.450Z,-91
2016-09-15T04:11:13.564Z,-91
2016-09-15T04:12:13.514Z,-91
2016-09-15T04:13:13.487Z,-91
2016-09-15T04:14:13.455Z,-91
2016-09-15T04:15:13.537Z,-91
2016-09-15T04:16:13.414Z,-91
2016-09-15T04:17:13.505Z,-91
2016-09-15T04:18:13.556Z,-90
2016-09-15T04:19:13.543Z,-92
2016-09-15T04:20:13.550Z,-91
2016-09-15T04:21:13.582Z,-91
2016-09-15T04:22:13.469Z,-91
2016-09-15T04:23:13.521Z,-91
2016-09-15T04:24:13.625Z,-91
2016-09-15T04:25:13.513Z,-92
2016-09-15T04:26:13.461Z,-91
2016-09-15T04:27:13.526Z,-91
2016-09-15T04:28:13.668Z,-91
2016-09-15T04:29:13.477Z,-91
2016-09-15T04:30:13.548Z,-91
2016-09-15T04:31:13.493Z,-91
2016-09-15T04:32:13.669Z,-92
2016-09-15T04:33:13.573Z,-92
2016-09-15T04:34:13.662Z,-92
2016-09-15T04:35:13.577Z,-92
2016-09-15T04:36:13.681Z,-91
2016-09-15T04:37:13.676Z,-92
2016-09-15T04:38:13.515Z,-92
2016-09-15T04:39:13.619Z,-91
2016-09-15T04:40:13.679Z,-90
2016-09-15T04:41:13.637Z,-91
2016-09-15T04:42:13.570Z,-91
2016-09-15T04:43:13.532Z,-92
2016-09-15T04:44:13.623Z,-90
2016-09-15T04:45:13.646Z,-92
2016-09-15T04:46:13.597Z,-91
2016-09-15T04:47:13.625Z,-91
2016-09-15T04:48:13.745Z,-92
2016-09-15T04:49:13.619Z,-92
2016-09-15T04:50:13.552Z,-92
2016-09-15T04:51:13.679Z,-91
2016-09-15T04:52:13.666Z,-91
2016-09-15T04:53:13.721Z,-91
2016-09-15T04:54:13.593Z,-92
2016-09-15T04:55:13.683Z,-92
2016-09-15T04:56:13.658Z,-91
2016-09-15T04:57:13.722Z,-92
2016-09-15T04:58:13.630Z,-91
2016-09-15T04:59:13.679Z,-92
2016-09-15T05:00:13.641Z,-92
2016-09-15T05:01:13.648Z,-92
2016-09-15T05:02:13.720Z,-92
2016-09-15T05:03:13.630Z,-91
2016-09-15T05:04:13.619Z,-92
2016-09-15T05:05:13.653Z,-90
2016-09-15T05:06:13.648Z,-92
2016-09-15T05:07:13.606Z,-91
2016-09-15T05:08:13.668Z,-92
2016-09-15T05:09:13.648Z,-93
2016-09-15T05:10:13.592Z,-92
2016-09-15T05:11:13.649Z,-92
2016-09-15T05:12:13.730Z,-91
2016-09-15T05:13:13.668Z,-92
2016-09-15T05:14:13.569Z,-92
2016-09-15T05:15:13.689Z,-91
2016-09-15T05:16:13.669Z,-92
2016-09-15T05:17:13.748Z,-91
2016-09-15T05:18:13.603Z,-92
2016-09-15T05:19:13.787Z,-92
2016-09-15T05:20:13.784Z,-92
2016-09-15T05:21:13.799Z,-91
2016-09-15T05:22:13.644Z,-92
2016-09-15T05:23:13.797Z,-91
2016-09-15T05:24:13.752Z,-91
2016-09-15T05:25:13.760Z,-91
2016-09-15T05:26:13.645Z,-92
2016-09-15T05:27:13.766Z,-91
2016-09-15T05:28:13.810Z,-92
2016-09-15T05:29:13.743Z,-91
2016-09-15T05:30:13.700Z,-92
2016-09-15T05:31:13.708Z,-92
2016-09-15T05:32:13.780Z,-91
2016-09-15T05:33:13.795Z,-91
2016-09-15T05:34:13.723Z,-92
2016-09-15T05:35:13.848Z,-92
2016-09-15T05:36:13.794Z,-91
2016-09-15T05:37:13.683Z,-91
2016-09-15T05:38:13.825Z,-91
2016-09-15T05:39:13.778Z,-90
2016-09-15T05:40:13.910Z,-92
2016-09-15T05:41:13.777Z,-91
2016-09-15T05:42:13.798Z,-91
2016-09-15T05:43:13.760Z,-91
2016-09-15T05:44:13.722Z,-91
2016-09-15T05:45:13.792Z,-92
2016-09-15T05:46:13.834Z,-91
2016-09-15T05:47:13.709Z,-91
2016-09-15T05:48:13.750Z,-91
2016-09-15T05:49:13.801Z,-91
2016-09-15T05:50:13.863Z,-92
2016-09-15T05:51:13.910Z,-91
2016-09-15T05:52:13.866Z,-92
2016-09-15T05:53:13.755Z,-91
2016-09-15T05:54:13.893Z,-91
2016-09-15T05:55:13.846Z,-91
2016-09-15T05:56:13.913Z,-92
2016-09-15T05:57:13.897Z,-92
2016-09-15T05:58:13.896Z,-92
2016-09-15T05:59:13.893Z,-91
2016-09-15T06:00:13.705Z,-92
2016-09-15T06:01:13.855Z,-92
2016-09-15T06:02:13.836Z,-96
2016-09-15T06:03:13.809Z,-83
2016-09-15T06:04:13.964Z,-83
2016-09-15T06:05:13.870Z,-84
2016-09-15T06:06:13.756Z,-84
2016-09-15T06:07:13.784Z,-84
2016-09-15T06:08:13.863Z,-84
2016-09-15T06:09:13.840Z,-84
2016-09-15T06:10:13.889Z,-84
2016-09-15T06:11:13.769Z,-84
2016-09-15T06:12:13.955Z,-83
2016-09-15T06:13:13.948Z,-84
2016-09-15T06:14:13.845Z,-84
2016-09-15T06:15:13.859Z,-84
2016-09-15T06:16:13.952Z,-84
2016-09-15T06:17:14.030Z,-84
2016-09-15T06:18:13.918Z,-84
2016-09-15T06:19:13.835Z,-84
2016-09-15T06:20:13.968Z,-84
2016-09-15T06:21:13.992Z,-84
2016-09-15T06:22:14.036Z,-84
2016-09-15T06:23:13.961Z,-84
2016-09-15T06:24:14.037Z,-84
2016-09-15T06:25:13.937Z,-85
2016-09-15T06:26:13.966Z,-84
2016-09-15T06:27:14.076Z,-84
2016-09-15T06:28:13.954Z,-84
2016-09-15T06:29:14.148Z,-84
2016-09-15T06:30:14.092Z,-84
2016-09-15T06:31:13.987Z,-84
2016-09-15T06:32:14.816Z,-83
2016-09-15T06:33:13.981Z,-83
2016-09-15T06:34:14.008Z,-84
2016-09-15T06:35:14.097Z,-84
2016-09-15T06:36:13.898Z,-85
2016-09-15T06:37:14.028Z,-86
2016-09-15T06:38:14.052Z,-84
2016-09-15T06:39:13.926Z,-84
2016-09-15T06:40:13.990Z,-84
2016-09-15T06:41:13.984Z,-82
2016-09-15T06:42:14.003Z,-81
2016-09-15T06:43:14.026Z,-82
2016-09-15T06:44:13.956Z,-82
2016-09-15T06:45:14.016Z,-83
2016-09-15T06:46:14.002Z,-82
2016-09-15T06:47:13.960Z,-82
2016-09-15T06:48:14.335Z,-82
2016-09-15T06:49:14.124Z,-81
2016-09-15T06:50:13.956Z,-82
2016-09-15T06:51:14.183Z,-82
2016-09-15T06:52:14.161Z,-82
2016-09-15T06:53:14.131Z,-82
2016-09-15T06:54:14.060Z,-83
2016-09-15T06:55:14.114Z,-82
2016-09-15T06:56:13.963Z,-82
2016-09-15T06:57:14.235Z,-83
2016-09-15T06:58:14.924Z,-83
2016-09-15T06:59:14.087Z,-81
2016-09-15T07:00:14.035Z,-82
2016-09-15T07:01:14.138Z,-86
2016-09-15T07:02:13.901Z,-85
2016-09-15T07:03:14.007Z,-85
2016-09-15T07:04:14.125Z,-85
2016-09-15T07:05:14.107Z,-86
2016-09-15T07:06:14.125Z,-86
2016-09-15T07:07:14.098Z,-85
2016-09-15T07:08:14.100Z,-86
2016-09-15T07:09:14.094Z,-86
2016-09-15T07:10:14.191Z,-85
2016-09-15T07:11:14.157Z,-87
2016-09-15T07:12:14.075Z,-87
2016-09-15T07:13:14.107Z,-86
2016-09-15T07:14:14.058Z,-87
2016-09-15T07:15:14.111Z,-87
2016-09-15T07:16:13.929Z,-87
2016-09-15T07:17:14.177Z,-87
2016-09-15T07:18:14.157Z,-87
2016-09-15T07:19:14.076Z,-86
2016-09-15T07:20:14.057Z,-87
2016-09-15T07:21:14.127Z,-87
2016-09-15T07:22:14.082Z,-87
2016-09-15T07:23:14.137Z,-87
2016-09-15T07:24:14.055Z,-87
2016-09-15T07:25:14.132Z,-87
2016-09-15T07:26:14.078Z,-87
2016-09-15T07:27:14.300Z,-87
2016-09-15T07:28:14.352Z,-88
2016-09-15T07:29:14.102Z,-87
2016-09-15T07:30:14.183Z,-87
2016-09-15T07:31:14.240Z,-86
2016-09-15T07:32:14.182Z,-86
2016-09-15T07:33:14.036Z,-87
2016-09-15T07:34:14.076Z,-87
2016-09-15T07:35:14.148Z,-86
2016-09-15T07:36:14.175Z,-88
2016-09-15T07:37:14.133Z,-87
2016-09-15T07:38:14.143Z,-88
2016-09-15T07:39:14.263Z,-89
2016-09-15T07:40:14.071Z,-89
2016-09-15T07:41:14.305Z,-89
2016-09-15T07:42:14.282Z,-87
2016-09-15T07:43:14.251Z,-88
2016-09-15T07:44:14.226Z,-89
2016-09-15T07:45:14.265Z,-86
2016-09-15T07:46:14.179Z,-87
2016-09-15T07:47:14.282Z,-85
2016-09-15T07:48:14.235Z,-85
2016-09-15T07:49:14.193Z,-84
2016-09-15T07:50:14.208Z,-85
2016-09-15T07:51:14.843Z,-85
2016-09-15T07:52:14.319Z,-85
2016-09-15T07:53:14.143Z,-84
2016-09-15T07:54:14.153Z,-85
2016-09-15T07:55:14.323Z,-84
2016-09-15T07:56:14.173Z,-85
2016-09-15T07:57:14.151Z,-85
2016-09-15T07:58:14.283Z,-86
2016-09-15T07:59:14.173Z,-85
2016-09-15T08:00:14.162Z,-86
2016-09-15T08:01:14.131Z,-85
2016-09-15T08:02:14.172Z,-86
2016-09-15T08:03:14.175Z,-85
2016-09-15T08:04:14.278Z,-87
2016-09-15T08:05:14.277Z,-86
2016-09-15T08:06:14.274Z,-87
2016-09-15T08:07:14.200Z,-86
2016-09-15T08:08:14.363Z,-87
2016-09-15T08:09:14.248Z,-87
2016-09-15T08:10:14.278Z,-87
2016-09-15T08:11:14.305Z,-87
2016-09-15T08:12:14.174Z,-86
2016-09-15T08:13:14.144Z,-85
2016-09-15T08:14:14.288Z,-85
2016-09-15T08:15:15.048Z,-86
2016-09-15T08:16:14.337Z,-86
2016-09-15T08:17:14.224Z,-86
2016-09-15T08:18:14.230Z,-87
2016-09-15T08:19:14.358Z,-85
2016-09-15T08:20:14.214Z,-86
2016-09-15T08:21:14.317Z,-86
2016-09-15T08:22:14.288Z,-86
2016-09-15T08:23:14.262Z,-86
2016-09-15T08:24:14.278Z,-86
2016-09-15T08:25:14.090Z,-86
2016-09-15T08:26:14.220Z,-87
2016-09-15T08:27:14.196Z,-87
2016-09-15T08:28:14.367Z,-87
2016-09-15T08:29:14.374Z,-86
2016-09-15T08:30:14.404Z,-87
2016-09-15T08:31:14.238Z,-87
2016-09-15T08:32:14.231Z,-86
2016-09-15T08:33:14.316Z,-86
2016-09-15T08:34:14.265Z,-87
2016-09-15T08:35:14.309Z,-85
2016-09-15T08:36:14.445Z,-86
2016-09-15T08:37:14.136Z,-92
2016-09-15T08:38:14.285Z,-92
2016-09-15T08:39:14.295Z,-92
2016-09-15T08:40:14.262Z,-93
2016-09-15T08:41:14.589Z,-92
2016-09-15T08:42:14.354Z,-93
2016-09-15T08:43:14.262Z,-96
2016-09-15T08:44:14.259Z,-95
2016-09-15T08:45:14.264Z,-94
2016-09-15T08:46:15.019Z,-94
2016-09-15T08:47:14.507Z,-94
2016-09-15T08:48:14.355Z,-95
2016-09-15T08:49:14.364Z,-96
2016-09-15T08:50:14.367Z,-96
2016-09-15T08:51:14.324Z,-94
2016-09-15T08:52:14.365Z,-95
2016-09-15T08:53:14.482Z,-93
2016-09-15T08:54:14.488Z,-95
2016-09-15T08:55:14.459Z,-95
2016-09-15T08:56:14.433Z,-96
2016-09-15T08:57:14.376Z,-93
2016-09-15T08:58:14.304Z,-96
2016-09-15T08:59:14.574Z,-95
2016-09-15T09:00:14.323Z,-96
2016-09-15T09:01:14.454Z,-95
2016-09-15T09:02:14.331Z,-95
2016-09-15T09:03:14.432Z,-92
2016-09-15T09:04:14.419Z,-95
2016-09-15T09:05:14.405Z,-95
2016-09-15T09:06:14.397Z,-96
2016-09-15T09:07:14.969Z,-94
2016-09-15T09:08:14.458Z,-96
2016-09-15T09:09:14.380Z,-96
2016-09-15T09:10:15.022Z,-95
2016-09-15T09:11:14.278Z,-96
2016-09-15T09:12:14.457Z,-93
2016-09-15T09:13:14.731Z,-95
2016-09-15T09:14:14.266Z,-94
2016-09-15T09:15:14.577Z,-95
2016-09-15T09:16:19.213Z,-92
2016-09-15T09:17:18.918Z,-93
2016-09-15T09:18:14.445Z,-94
2016-09-15T09:19:14.453Z,-92
2016-09-15T09:20:14.321Z,-96
2016-09-15T09:21:15.067Z,-93
2016-09-15T09:22:14.417Z,-95
2016-09-15T09:23:14.499Z,-94
2016-09-15T09:24:14.490Z,-93
2016-09-15T09:25:14.459Z,-94
2016-09-15T09:26:14.382Z,-96
2016-09-15T09:27:14.480Z,-96
2016-09-15T09:28:14.582Z,-96
2016-09-15T09:29:14.515Z,-95
2016-09-15T09:30:14.508Z,-92
2016-09-15T09:31:14.544Z,-94
2016-09-15T09:32:14.503Z,-96
2016-09-15T09:33:14.398Z,-93
2016-09-15T09:34:14.538Z,-95
2016-09-15T09:35:14.645Z,-94
2016-09-15T09:36:14.542Z,-90
2016-09-15T09:37:14.584Z,-95
2016-09-15T09:38:14.482Z,-94
2016-09-15T09:39:14.409Z,-92
2016-09-15T09:40:14.601Z,-95
2016-09-15T09:41:14.548Z,-95
2016-09-15T09:42:14.748Z,-94
2016-09-15T09:43:14.588Z,-94
2016-09-15T09:44:15.397Z,-96
2016-09-15T09:45:14.585Z,-94
2016-09-15T09:46:14.430Z,-96
2016-09-15T09:47:15.219Z,-93
2016-09-15T09:48:14.458Z,-96
2016-09-15T09:49:14.545Z,-95
2016-09-15T09:50:14.471Z,-96
2016-09-15T09:51:14.600Z,-96
2016-09-15T09:52:14.512Z,-94
2016-09-15T09:53:14.480Z,-95
2016-09-15T09:54:14.634Z,-96
2016-09-15T09:55:14.563Z,-95
2016-09-15T09:56:14.619Z,-95
2016-09-15T09:57:14.642Z,-96
2016-09-15T09:58:14.669Z,-96
2016-09-15T09:59:15.670Z,-94
2016-09-15T10:00:14.552Z,-95
2016-09-15T10:01:14.679Z,-95
2016-09-15T10:02:14.520Z,-94
2016-09-15T10:03:14.483Z,-96
2016-09-15T10:04:14.529Z,-94
2016-09-15T10:05:15.392Z,-94
2016-09-15T10:06:14.708Z,-94
2016-09-15T10:07:14.619Z,-96
2016-09-15T10:08:14.820Z,-93
2016-09-15T10:09:14.695Z,-96
2016-09-15T10:10:14.686Z,-95
2016-09-15T10:11:14.762Z,-96
2016-09-15T10:12:14.766Z,-95
2016-09-15T10:13:14.643Z,-96
2016-09-15T10:14:15.884Z,-96
2016-09-15T10:15:15.202Z,-94
2016-09-15T10:16:14.928Z,-96
2016-09-15T10:17:15.289Z,-96
2016-09-15T10:18:14.594Z,-93
2016-09-15T10:19:14.630Z,-96
2016-09-15T10:20:14.592Z,-95
2016-09-15T10:21:14.674Z,-95
2016-09-15T10:22:14.724Z,-96
2016-09-15T10:23:15.435Z,-96
2016-09-15T10:24:14.682Z,-96
2016-09-15T10:25:14.633Z,-93
2016-09-15T10:26:14.613Z,-95
2016-09-15T10:27:14.551Z,-93
2016-09-15T10:28:14.635Z,-92
2016-09-15T10:29:14.644Z,-96
2016-09-15T10:30:14.618Z,-96
2016-09-15T10:31:14.788Z,-93
2016-09-15T10:32:17.736Z,-96
2016-09-15T10:33:15.008Z,-95
2016-09-15T10:34:15.182Z,-94
2016-09-15T10:35:15.164Z,-92
2016-09-15T10:36:14.813Z,-96
2016-09-15T10:37:16.930Z,-96
2016-09-15T10:38:15.125Z,-95
2016-09-15T10:39:15.598Z,-96
2016-09-15T10:40:14.932Z,-94
2016-09-15T10:41:15.255Z,-95
2016-09-15T10:42:15.277Z,-95
2016-09-15T10:43:14.580Z,-94
2016-09-15T10:44:14.883Z,-95
2016-09-15T10:45:15.665Z,-96
2016-09-15T10:46:14.912Z,-96
2016-09-15T10:47:14.625Z,-93
2016-09-15T10:48:14.677Z,-92
2016-09-15T10:49:14.656Z,-88
2016-09-15T10:50:14.603Z,-89
2016-09-15T10:51:14.631Z,-89
2016-09-15T10:52:14.695Z,-88
2016-09-15T10:53:14.613Z,-91
2016-09-15T10:54:14.726Z,-89
2016-09-15T10:55:14.829Z,-89
2016-09-15T10:56:14.768Z,-91
2016-09-15T10:57:14.738Z,-88
2016-09-15T10:58:14.590Z,-89
2016-09-15T10:59:14.758Z,-88
2016-09-15T11:00:14.574Z,-89
2016-09-15T11:01:15.438Z,-88
2016-09-15T11:02:14.749Z,-87
2016-09-15T11:03:14.707Z,-89
2016-09-15T11:04:17.055Z,-90
2016-09-15T11:05:14.773Z,-89
2016-09-15T11:06:15.464Z,-90
2016-09-15T11:07:14.717Z,-89
2016-09-15T11:08:14.781Z,-88
2016-09-15T11:09:14.684Z,-89
2016-09-15T11:10:14.629Z,-89
2016-09-15T11:11:14.758Z,-90
2016-09-15T11:12:14.765Z,-89
2016-09-15T11:13:14.657Z,-89
2016-09-15T11:14:14.600Z,-89
2016-09-15T11:15:14.740Z,-90
2016-09-15T11:16:14.706Z,-89
2016-09-15T11:17:14.967Z,-89
2016-09-15T11:18:14.788Z,-88
2016-09-15T11:19:14.891Z,-89
2016-09-15T11:20:14.730Z,-89
2016-09-15T11:21:14.813Z,-88
2016-09-15T11:22:15.588Z,-88
2016-09-15T11:23:15.622Z,-88
2016-09-15T11:24:15.367Z,-88
2016-09-15T11:25:15.236Z,-87
2016-09-15T11:26:15.333Z,-88
2016-09-15T11:27:14.822Z,-88
2016-09-15T11:28:14.771Z,-88
2016-09-15T11:29:14.795Z,-90
2016-09-15T11:30:14.857Z,-88
2016-09-15T11:31:14.695Z,-89
2016-09-15T11:32:14.857Z,-89
2016-09-15T11:33:14.696Z,-88
2016-09-15T11:34:14.710Z,-89
2016-09-15T11:35:14.897Z,-88
2016-09-15T11:36:14.985Z,-88
2016-09-15T11:37:15.084Z,-89
2016-09-15T11:38:14.882Z,-88
2016-09-15T11:39:14.753Z,-88
2016-09-15T11:40:14.826Z,-89
2016-09-15T11:41:14.856Z,-88
2016-09-15T11:42:14.638Z,-89
2016-09-15T11:43:14.785Z,-88
2016-09-15T11:44:14.720Z,-88
2016-09-15T11:45:14.711Z,-88
2016-09-15T11:46:14.733Z,-90
2016-09-15T11:47:14.781Z,-90
2016-09-15T11:48:14.907Z,-90
2016-09-15T11:49:14.798Z,-90
2016-09-15T11:50:14.836Z,-89
2016-09-15T11:51:14.888Z,-88
2016-09-15T11:52:15.152Z,-91
2016-09-15T11:53:14.992Z,-89
2016-09-15T11:54:14.719Z,-90
2016-09-15T11:55:14.940Z,-89
2016-09-15T11:56:14.866Z,-89
2016-09-15T11:57:15.513Z,-90
2016-09-15T11:58:15.520Z,-90
2016-09-15T11:59:15.455Z,-89
2016-09-15T12:00:15.583Z,-95
2016-09-15T12:01:17.975Z,-89
2016-09-15T12:02:14.853Z,-90
2016-09-15T12:03:14.899Z,-90
2016-09-15T12:04:15.151Z,-91
2016-09-15T12:05:14.981Z,-90
2016-09-15T12:06:15.834Z,-91
2016-09-15T12:07:15.015Z,-90
2016-09-15T12:08:14.950Z,-92
2016-09-15T12:09:15.001Z,-92
2016-09-15T12:10:14.855Z,-91
2016-09-15T12:11:14.881Z,-89
2016-09-15T12:12:14.813Z,-92
2016-09-15T12:13:15.020Z,-92
2016-09-15T12:14:14.928Z,-91
2016-09-15T12:15:14.969Z,-92
2016-09-15T12:16:14.799Z,-92
2016-09-15T12:17:14.947Z,-92
2016-09-15T12:18:14.798Z,-89
2016-09-15T12:19:15.062Z,-91
2016-09-15T12:20:14.994Z,-91
2016-09-15T12:21:15.817Z,-90
2016-09-15T12:22:14.861Z,-89
2016-09-15T12:23:14.957Z,-91
2016-09-15T12:24:14.986Z,-94
2016-09-15T12:25:14.963Z,-95
2016-09-15T12:26:15.485Z,-94
2016-09-15T12:27:15.254Z,-96
2016-09-15T12:28:14.927Z,-95
2016-09-15T12:29:14.981Z,-96
2016-09-15T12:30:14.975Z,-92
2016-09-15T12:31:14.977Z,-93
2016-09-15T12:32:15.052Z,-96
2016-09-15T12:33:14.961Z,-96
2016-09-15T12:34:15.982Z,-94
2016-09-15T12:35:15.597Z,-94
2016-09-15T12:36:14.941Z,-93
2016-09-15T12:37:14.974Z,-94
2016-09-15T12:38:14.969Z,-94
2016-09-15T12:39:15.017Z,-93
2016-09-15T12:40:14.893Z,-95
2016-09-15T12:41:14.885Z,-95
2016-09-15T12:42:14.962Z,-95
2016-09-15T12:43:15.040Z,-91
2016-09-15T12:44:14.934Z,-92
2016-09-15T12:45:15.082Z,-95
2016-09-15T12:46:14.959Z,-95
2016-09-15T12:47:15.002Z,-87
2016-09-15T12:48:14.902Z,-84
2016-09-15T12:49:14.936Z,-85
2016-09-15T12:50:15.044Z,-84
2016-09-15T12:51:15.000Z,-83
2016-09-15T12:52:15.093Z,-84
2016-09-15T12:53:15.000Z,-84
2016-09-15T12:54:14.951Z,-85
2016-09-15T12:55:14.979Z,-86
2016-09-15T12:56:14.967Z,-86
2016-09-15T12:57:15.073Z,-85
2016-09-15T12:58:15.052Z,-84
2016-09-15T12:59:15.073Z,-84
2016-09-15T13:00:14.928Z,-81
2016-09-15T13:01:15.150Z,-82
2016-09-15T13:02:14.894Z,-82
2016-09-15T13:03:14.974Z,-82
2016-09-15T13:04:15.030Z,-81
2016-09-15T13:05:15.247Z,-80
2016-09-15T13:06:15.356Z,-81
2016-09-15T13:07:15.242Z,-82
2016-09-15T13:08:16.158Z,-81
2016-09-15T13:09:15.076Z,-82
2016-09-15T13:10:15.019Z,-82
2016-09-15T13:11:15.158Z,-81
2016-09-15T13:12:15.082Z,-80
2016-09-15T13:13:15.052Z,-81
2016-09-15T13:14:14.973Z,-82
2016-09-15T13:15:15.087Z,-81
2016-09-15T13:16:15.067Z,-81
2016-09-15T13:17:15.136Z,-81
2016-09-15T13:18:14.989Z,-80
2016-09-15T13:19:15.111Z,-80
2016-09-15T13:20:15.128Z,-81
2016-09-15T13:21:15.158Z,-80
2016-09-15T13:22:15.028Z,-80
2016-09-15T13:23:15.134Z,-80
2016-09-15T13:24:15.167Z,-80
2016-09-15T13:25:15.082Z,-82
2016-09-15T13:26:15.010Z,-82
2016-09-15T13:27:15.189Z,-81
2016-09-15T13:28:15.154Z,-80
2016-09-15T13:29:15.173Z,-81
2016-09-15T13:30:15.235Z,-81
2016-09-15T13:31:15.220Z,-82
2016-09-15T13:32:15.148Z,-82
2016-09-15T13:33:15.195Z,-80
2016-09-15T13:34:15.215Z,-82
2016-09-15T13:35:15.140Z,-82
2016-09-15T13:36:15.115Z,-81
2016-09-15T13:37:15.178Z,-81
2016-09-15T13:38:15.111Z,-81
2016-09-15T13:39:15.175Z,-82
2016-09-15T13:40:15.108Z,-80
2016-09-15T13:41:15.125Z,-81
2016-09-15T13:42:15.202Z,-82
2016-09-15T13:43:15.305Z,-81
2016-09-15T13:44:15.279Z,-82
2016-09-15T13:45:15.154Z,-82
2016-09-15T13:46:15.135Z,-81